Time;durP1;ratioP1;P1;durP2;ratioP2;P2;SDS_P1;SDS_P2;PMS_P1;PMS_P2;Temp;Humidity;BMP_temperature;BMP_pressure;BME280_temperature;BME280_humidity;BME280_pressure;Samples;Min_cycle;Max_cycle;Signal;HPM_P1;HPM_P2
2021/12/09 00:00:43;;;;;;;40.50;18.70;;;;;;;;;;5110305;28;20039;-60
2021/12/09 00:03:09;;;;;;;18.55;9.55;;;;;;;;;;5110906;28;20085;-60
2021/12/09 00:05:36;;;;;;;16.42;8.10;;;;;;;;;;5110393;28;20028;-60
2021/12/09 00:08:03;;;;;;;15.32;6.35;;;;;;;;;;5110122;28;20102;-60
2021/12/09 00:10:29;;;;;;;15.10;7.85;;;;;;;;;;5108223;28;20035;-60
2021/12/09 00:12:55;;;;;;;8.93;5.40;;;;;;;;;;5110427;28;20083;-60
2021/12/09 00:15:21;;;;;;;13.57;6.13;;;;;;;;;;5110485;28;20435;-60
2021/12/09 00:17:47;;;;;;;41.65;21.20;;;;;;;;;;5109742;28;20044;-60
2021/12/09 00:20:15;;;;;;;9.50;4.75;;;;;;;;;;5109174;28;20046;-60
2021/12/09 00:22:41;;;;;;;11.70;5.55;;;;;;;;;;5109760;28;20437;-60
2021/12/09 00:25:08;;;;;;;13.15;5.93;;;;;;;;;;5110378;28;20032;-60
2021/12/09 00:27:34;;;;;;;7.85;5.30;;;;;;;;;;5110279;28;20050;-60
2021/12/09 00:30:00;;;;;;;13.75;5.53;;;;;;;;;;5109697;28;20166;-60
2021/12/09 00:32:26;;;;;;;10.85;5.10;;;;;;;;;;5120721;28;20040;-60
2021/12/09 00:34:52;;;;;;;9.30;5.53;;;;;;;;;;5109914;28;20051;-60
2021/12/09 00:37:33;;;;;;;10.88;5.43;;;;;;;;;;5107292;28;20064;-60
2021/12/09 00:39:59;;;;;;;9.18;5.43;;;;;;;;;;5108469;28;20035;-60
2021/12/09 00:42:26;;;;;;;11.02;5.43;;;;;;;;;;5123938;28;20061;-60
2021/12/09 00:44:52;;;;;;;10.48;5.20;;;;;;;;;;5109835;28;20054;-60
2021/12/09 00:47:19;;;;;;;9.63;5.47;;;;;;;;;;5126644;28;20452;-60
2021/12/09 00:49:45;;;;;;;9.77;5.47;;;;;;;;;;5111151;28;20068;-60
2021/12/09 00:52:11;;;;;;;12.75;6.00;;;;;;;;;;5109842;28;20036;-60
2021/12/09 00:54:38;;;;;;;10.20;5.45;;;;;;;;;;5108925;28;20032;-60
2021/12/09 00:57:04;;;;;;;8.95;5.45;;;;;;;;;;5108757;28;20089;-60
2021/12/09 00:59:30;;;;;;;11.27;5.85;;;;;;;;;;5109830;28;20039;-60
2021/12/09 01:01:56;;;;;;;8.65;5.18;;;;;;;;;;5109625;28;20387;-61
2021/12/09 01:04:23;;;;;;;11.85;5.80;;;;;;;;;;5110159;28;20532;-60
2021/12/09 01:06:49;;;;;;;11.68;5.53;;;;;;;;;;5114762;27;20398;-60
2021/12/09 01:09:15;;;;;;;9.15;5.22;;;;;;;;;;5109996;28;20402;-60
2021/12/09 01:11:41;;;;;;;11.50;5.57;;;;;;;;;;5109749;28;20035;-60
2021/12/09 01:14:07;;;;;;;7.75;5.53;;;;;;;;;;5109940;28;20061;-60
2021/12/09 01:16:34;;;;;;;11.27;5.60;;;;;;;;;;5109597;28;20035;-60
2021/12/09 01:19:00;;;;;;;15.60;6.40;;;;;;;;;;5109604;28;20032;-60
2021/12/09 01:21:26;;;;;;;13.07;5.68;;;;;;;;;;5109722;28;20042;-60
2021/12/09 01:23:52;;;;;;;9.65;5.85;;;;;;;;;;5109420;28;20040;-60
2021/12/09 01:26:18;;;;;;;13.43;5.65;;;;;;;;;;5110054;28;20043;-60
2021/12/09 01:28:56;;;;;;;11.52;5.68;;;;;;;;;;5109400;28;20056;-60
2021/12/09 01:31:27;;;;;;;12.90;5.53;;;;;;;;;;5109965;28;20089;-60
2021/12/09 01:33:54;;;;;;;13.35;6.10;;;;;;;;;;5108013;28;20525;-60
2021/12/09 01:36:20;;;;;;;13.50;6.53;;;;;;;;;;5111092;27;20067;-60
2021/12/09 01:38:47;;;;;;;12.70;5.70;;;;;;;;;;5113151;28;20521;-60
2021/12/09 01:41:13;;;;;;;12.05;5.85;;;;;;;;;;5113094;28;20628;-60
2021/12/09 01:43:39;;;;;;;13.95;6.20;;;;;;;;;;5113332;28;20042;-60
2021/12/09 01:46:14;;;;;;;10.43;5.97;;;;;;;;;;5113029;27;20564;-61
2021/12/09 01:48:41;;;;;;;9.73;5.55;;;;;;;;;;5113165;28;20100;-57
2021/12/09 01:51:08;;;;;;;11.68;5.90;;;;;;;;;;5112927;28;20119;-57
2021/12/09 01:53:34;;;;;;;10.38;6.05;;;;;;;;;;5111252;28;20115;-57
2021/12/09 01:56:06;;;;;;;11.77;5.57;;;;;;;;;;5112895;28;20032;-57
2021/12/09 01:58:32;;;;;;;10.90;5.82;;;;;;;;;;5113150;27;20043;-57
2021/12/09 02:00:58;;;;;;;10.15;5.30;;;;;;;;;;5112717;28;20039;-57
2021/12/09 02:03:25;;;;;;;10.73;5.57;;;;;;;;;;5112636;28;20071;-57
2021/12/09 02:05:51;;;;;;;14.82;6.32;;;;;;;;;;5112641;28;20104;-57
2021/12/09 02:08:18;;;;;;;10.43;5.40;;;;;;;;;;5128211;27;20043;-57
2021/12/09 02:10:46;;;;;;;12.82;6.07;;;;;;;;;;5113162;28;20549;-57
2021/12/09 02:13:13;;;;;;;14.25;6.50;;;;;;;;;;5112473;28;20439;-57
2021/12/09 02:15:40;;;;;;;15.30;6.00;;;;;;;;;;5133471;27;20163;-57
2021/12/09 02:18:08;;;;;;;13.25;5.22;;;;;;;;;;5113112;27;20134;-57
2021/12/09 02:20:35;;;;;;;8.90;5.40;;;;;;;;;;5112488;28;20062;-57
2021/12/09 02:23:07;;;;;;;11.90;5.82;;;;;;;;;;5111553;28;20414;-57
2021/12/09 02:25:33;;;;;;;9.20;5.97;;;;;;;;;;5108541;28;20043;-57
2021/12/09 02:27:59;;;;;;;12.50;6.45;;;;;;;;;;5111898;28;20522;-57
2021/12/09 02:30:25;;;;;;;13.73;6.40;;;;;;;;;;5110655;28;20176;-57
2021/12/09 02:32:51;;;;;;;10.48;6.13;;;;;;;;;;5112204;28;20039;-57
2021/12/09 02:35:17;;;;;;;11.02;5.65;;;;;;;;;;5111876;27;20038;-58
2021/12/09 02:37:44;;;;;;;11.52;5.38;;;;;;;;;;5112317;28;20023;-57
2021/12/09 02:40:11;;;;;;;10.77;6.00;;;;;;;;;;5112219;27;20043;-57
2021/12/09 02:42:38;;;;;;;10.15;6.28;;;;;;;;;;5111836;28;20114;-57
2021/12/09 02:45:09;;;;;;;9.65;5.75;;;;;;;;;;5112013;28;20080;-57
2021/12/09 02:47:35;;;;;;;13.07;6.00;;;;;;;;;;5114754;27;20131;-57
2021/12/09 02:50:01;;;;;;;11.23;5.88;;;;;;;;;;5113771;27;20036;-58
2021/12/09 02:52:27;;;;;;;12.48;6.05;;;;;;;;;;5111608;27;20162;-57
2021/12/09 02:54:53;;;;;;;10.48;5.82;;;;;;;;;;5111466;27;20134;-57
2021/12/09 02:57:19;;;;;;;12.68;5.95;;;;;;;;;;5111478;28;20089;-57
2021/12/09 02:59:45;;;;;;;16.92;7.10;;;;;;;;;;5111918;28;20490;-57
2021/12/09 03:02:12;;;;;;;10.82;5.45;;;;;;;;;;5111862;28;20397;-57
2021/12/09 03:04:43;;;;;;;10.95;6.13;;;;;;;;;;5111975;28;20073;-57
2021/12/09 03:07:13;;;;;;;11.23;5.75;;;;;;;;;;5111384;28;20073;-57
2021/12/09 03:09:48;;;;;;;16.63;6.00;;;;;;;;;;5111536;28;20039;-57
2021/12/09 03:12:16;;;;;;;14.25;6.03;;;;;;;;;;5111699;28;20506;-57
2021/12/09 03:14:42;;;;;;;14.90;6.80;;;;;;;;;;5111494;28;20027;-57
2021/12/09 03:17:08;;;;;;;14.00;5.85;;;;;;;;;;5110997;28;20447;-57
2021/12/09 03:19:34;;;;;;;10.07;5.60;;;;;;;;;;5111428;28;20043;-57
2021/12/09 03:22:00;;;;;;;13.63;6.13;;;;;;;;;;5119727;27;20126;-57
2021/12/09 03:24:26;;;;;;;9.25;5.60;;;;;;;;;;5110963;28;20055;-57
2021/12/09 03:26:54;;;;;;;10.57;5.72;;;;;;;;;;5110811;28;20122;-57
2021/12/09 03:29:21;;;;;;;13.60;6.47;;;;;;;;;;5110635;28;20487;-57
2021/12/09 03:31:49;;;;;;;10.15;5.43;;;;;;;;;;5111457;28;20081;-57
2021/12/09 03:34:15;;;;;;;7.38;5.95;;;;;;;;;;5119082;27;20042;-57
2021/12/09 03:36:42;;;;;;;12.32;6.07;;;;;;;;;;5130574;27;20130;-57
2021/12/09 03:39:10;;;;;;;12.13;6.05;;;;;;;;;;5110705;28;20046;-57
2021/12/09 03:41:38;;;;;;;13.05;7.03;;;;;;;;;;5110489;28;20043;-57
2021/12/09 03:44:05;;;;;;;9.07;5.78;;;;;;;;;;5111179;28;20070;-57
2021/12/09 03:46:31;;;;;;;13.93;6.10;;;;;;;;;;5110762;27;20042;-57
2021/12/09 03:48:57;;;;;;;9.70;6.00;;;;;;;;;;5110807;28;20035;-57
2021/12/09 03:51:23;;;;;;;10.35;5.97;;;;;;;;;;5110705;28;20096;-57
2021/12/09 03:53:51;;;;;;;12.30;6.20;;;;;;;;;;5110474;27;20547;-57
2021/12/09 03:56:17;;;;;;;10.73;5.63;;;;;;;;;;5108903;28;20035;-57
2021/12/09 03:58:43;;;;;;;11.88;6.30;;;;;;;;;;5110574;27;20035;-57
2021/12/09 04:01:09;;;;;;;11.05;5.65;;;;;;;;;;5110190;28;20073;-57
2021/12/09 04:03:35;;;;;;;11.43;5.45;;;;;;;;;;5110643;28;20397;-57
2021/12/09 04:06:01;;;;;;;14.15;6.57;;;;;;;;;;5110717;28;20633;-57
2021/12/09 04:08:27;;;;;;;11.73;6.68;;;;;;;;;;5110360;28;20035;-57
2021/12/09 04:10:53;;;;;;;13.35;6.65;;;;;;;;;;5110353;28;20034;-57
2021/12/09 04:13:19;;;;;;;12.85;6.30;;;;;;;;;;5107969;28;20073;-57
2021/12/09 04:15:45;;;;;;;10.70;6.45;;;;;;;;;;5110564;28;20031;-57
2021/12/09 04:18:11;;;;;;;13.73;5.85;;;;;;;;;;5109927;28;20114;-57
2021/12/09 04:20:37;;;;;;;11.18;5.82;;;;;;;;;;5110295;28;20486;-57
2021/12/09 04:23:05;;;;;;;18.27;6.10;;;;;;;;;;5109822;28;20038;-57
2021/12/09 04:25:31;;;;;;;17.80;6.43;;;;;;;;;;5109919;28;20112;-57
2021/12/09 04:27:57;;;;;;;10.63;6.15;;;;;;;;;;5109966;28;20067;-57
2021/12/09 04:30:24;;;;;;;11.38;6.05;;;;;;;;;;5110015;28;20066;-57
2021/12/09 04:32:51;;;;;;;11.05;5.97;;;;;;;;;;5109853;28;20043;-57
2021/12/09 04:35:18;;;;;;;10.15;5.93;;;;;;;;;;5110276;28;20085;-57
2021/12/09 04:37:44;;;;;;;10.73;6.07;;;;;;;;;;5127877;28;20481;-57
2021/12/09 04:40:11;;;;;;;11.85;6.13;;;;;;;;;;5131143;28;20087;-57
2021/12/09 04:42:38;;;;;;;11.20;6.30;;;;;;;;;;5123284;28;20040;-57
2021/12/09 04:45:05;;;;;;;10.90;5.88;;;;;;;;;;5110469;28;20039;-57
2021/12/09 04:47:31;;;;;;;10.90;5.70;;;;;;;;;;5109990;28;20039;-57
2021/12/09 04:49:57;;;;;;;11.68;6.35;;;;;;;;;;5109378;28;20047;-57
2021/12/09 04:52:24;;;;;;;9.90;5.50;;;;;;;;;;5109364;28;20035;-57
2021/12/09 04:54:50;;;;;;;14.93;6.32;;;;;;;;;;5108672;28;20060;-57
2021/12/09 04:57:16;;;;;;;11.82;6.35;;;;;;;;;;5109898;28;20065;-57
2021/12/09 04:59:42;;;;;;;11.45;6.57;;;;;;;;;;5110055;28;20124;-57
2021/12/09 05:02:15;;;;;;;12.90;6.57;;;;;;;;;;5110247;28;20455;-57
2021/12/09 05:04:41;;;;;;;11.98;6.18;;;;;;;;;;5112405;28;20236;-57
2021/12/09 05:07:07;;;;;;;12.52;5.57;;;;;;;;;;5110049;28;20232;-57
2021/12/09 05:09:38;;;;;;;10.27;6.15;;;;;;;;;;5109913;28;20043;-57
2021/12/09 05:12:05;;;;;;;11.27;6.07;;;;;;;;;;5112620;28;20028;-57
2021/12/09 05:14:31;;;;;;;13.45;7.38;;;;;;;;;;5123838;27;20181;-57
2021/12/09 05:16:58;;;;;;;14.75;7.07;;;;;;;;;;5131285;27;20478;-57
2021/12/09 05:19:24;;;;;;;15.55;6.07;;;;;;;;;;5121360;27;20497;-57
2021/12/09 05:21:53;;;;;;;9.00;6.25;;;;;;;;;;5132403;27;20118;-57
2021/12/09 05:24:19;;;;;;;12.57;5.65;;;;;;;;;;5123058;27;20043;-57
2021/12/09 05:26:50;;;;;;;12.48;6.50;;;;;;;;;;5113023;28;20546;-58
2021/12/09 05:29:17;;;;;;;13.35;5.40;;;;;;;;;;5113478;28;20055;-57
2021/12/09 05:34:28;;;;;;;13.85;6.35;;;;;;;;;;5113443;28;20096;-57
2021/12/09 05:36:54;;;;;;;11.57;6.45;;;;;;;;;;5113146;28;20039;-57
2021/12/09 05:39:20;;;;;;;12.60;6.60;;;;;;;;;;5112086;28;20118;-57
2021/12/09 05:41:47;;;;;;;14.02;7.95;;;;;;;;;;5113340;28;20047;-57
2021/12/09 05:44:13;;;;;;;13.50;7.25;;;;;;;;;;5113495;28;20047;-57
2021/12/09 05:46:44;;;;;;;13.43;6.45;;;;;;;;;;5112696;28;20040;-57
2021/12/09 05:49:11;;;;;;;13.65;6.80;;;;;;;;;;5113430;28;20471;-57
2021/12/09 05:51:37;;;;;;;11.90;5.70;;;;;;;;;;5113222;28;20417;-57
2021/12/09 05:54:03;;;;;;;11.77;6.00;;;;;;;;;;5113100;28;20062;-57
2021/12/09 05:56:29;;;;;;;15.50;6.45;;;;;;;;;;5112124;28;20031;-57
2021/12/09 05:58:55;;;;;;;14.48;6.10;;;;;;;;;;5111864;28;20052;-57
2021/12/09 06:01:22;;;;;;;13.52;6.47;;;;;;;;;;5108804;28;20134;-57
2021/12/09 06:03:48;;;;;;;13.25;6.65;;;;;;;;;;5109862;28;20082;-57
2021/12/09 06:06:15;;;;;;;13.48;5.97;;;;;;;;;;5120269;27;20450;-57
2021/12/09 06:08:41;;;;;;;11.70;6.57;;;;;;;;;;5112498;28;20043;-57
2021/12/09 06:11:08;;;;;;;13.80;6.15;;;;;;;;;;5112522;28;20054;-57
2021/12/09 06:13:37;;;;;;;9.57;5.53;;;;;;;;;;5112720;28;20035;-58
2021/12/09 06:16:03;;;;;;;12.27;6.88;;;;;;;;;;5112942;28;20050;-57
2021/12/09 06:18:29;;;;;;;12.20;5.93;;;;;;;;;;5112314;28;20044;-57
2021/12/09 06:20:55;;;;;;;12.05;5.90;;;;;;;;;;5112861;28;20057;-57
2021/12/09 06:23:21;;;;;;;16.92;6.85;;;;;;;;;;5127035;27;20031;-57
2021/12/09 06:25:49;;;;;;;10.52;6.28;;;;;;;;;;5112499;28;20077;-57
2021/12/09 06:28:15;;;;;;;13.20;6.15;;;;;;;;;;5112010;28;20081;-57
2021/12/09 06:30:42;;;;;;;10.63;5.68;;;;;;;;;;5112334;28;20046;-57
2021/12/09 06:33:08;;;;;;;14.40;6.47;;;;;;;;;;5112552;28;20512;-57
2021/12/09 06:35:34;;;;;;;15.60;6.05;;;;;;;;;;5112076;28;20535;-57
2021/12/09 06:38:00;;;;;;;9.07;5.72;;;;;;;;;;5111747;28;20036;-57
2021/12/09 06:40:27;;;;;;;13.15;5.95;;;;;;;;;;5111730;28;20065;-57
2021/12/09 06:42:53;;;;;;;11.10;5.70;;;;;;;;;;5111811;28;20042;-57
2021/12/09 06:45:21;;;;;;;12.45;6.20;;;;;;;;;;5112560;28;20088;-57
2021/12/09 06:47:47;;;;;;;14.10;6.05;;;;;;;;;;5115736;27;20043;-61
2021/12/09 06:50:15;;;;;;;13.73;6.10;;;;;;;;;;5111925;28;20031;-63
2021/12/09 06:52:41;;;;;;;11.65;5.85;;;;;;;;;;5110480;28;20458;-62
2021/12/09 06:55:08;;;;;;;10.75;5.85;;;;;;;;;;5110179;28;20062;-63
2021/12/09 06:57:35;;;;;;;12.50;5.65;;;;;;;;;;5108161;28;20027;-65
2021/12/09 07:00:01;;;;;;;11.10;5.70;;;;;;;;;;5129076;27;20126;-62
2021/12/09 07:02:27;;;;;;;13.55;5.75;;;;;;;;;;5109326;28;20050;-59
2021/12/09 07:04:53;;;;;;;10.15;5.50;;;;;;;;;;5105541;28;20040;-62
2021/12/09 07:07:19;;;;;;;11.38;6.00;;;;;;;;;;5109251;28;20039;-65
2021/12/09 07:09:45;;;;;;;17.05;6.15;;;;;;;;;;5105529;28;20128;-65
2021/12/09 07:12:11;;;;;;;12.52;5.90;;;;;;;;;;5100401;28;20542;-69
2021/12/09 07:14:39;;;;;;;13.88;6.47;;;;;;;;;;5109333;28;20209;-60
2021/12/09 07:17:05;;;;;;;12.80;5.97;;;;;;;;;;5107296;28;20049;-64
2021/12/09 08:54:44;;;;;;;11.85;5.40;;;;;;;;;;4570627;29;20056;-59
2021/12/09 08:57:11;;;;;;;10.35;4.82;;;;;;;;;;4937522;29;20054;-59
2021/12/09 08:59:37;;;;;;;10.50;4.75;;;;;;;;;;4937087;29;20383;-68
2021/12/09 09:02:04;;;;;;;14.43;5.57;;;;;;;;;;4937014;29;20048;-67
2021/12/09 09:04:30;;;;;;;10.95;4.72;;;;;;;;;;4937174;29;20134;-65
2021/12/09 09:06:57;;;;;;;10.10;4.60;;;;;;;;;;4937426;29;20078;-63
2021/12/09 09:09:26;;;;;;;13.10;4.70;;;;;;;;;;4935455;29;20056;-60
2021/12/09 09:11:52;;;;;;;9.00;4.60;;;;;;;;;;4920107;29;20050;-70
2021/12/09 09:14:18;;;;;;;10.45;5.05;;;;;;;;;;4936736;29;20138;-64
2021/12/09 09:16:44;;;;;;;9.68;5.03;;;;;;;;;;4936666;29;20154;-67
2021/12/09 09:19:12;;;;;;;7.35;4.15;;;;;;;;;;4935717;29;20091;-63
2021/12/09 09:21:38;;;;;;;13.52;6.10;;;;;;;;;;4936668;29;20056;-59
2021/12/09 09:24:04;;;;;;;11.60;4.70;;;;;;;;;;4936798;29;20465;-59
2021/12/09 09:26:31;;;;;;;6.25;4.07;;;;;;;;;;4936654;29;20050;-59
2021/12/09 09:28:57;;;;;;;12.55;4.65;;;;;;;;;;4936636;29;20114;-58
2021/12/09 09:31:26;;;;;;;10.75;4.35;;;;;;;;;;4936624;29;20431;-59
2021/12/09 09:33:53;;;;;;;18.00;6.13;;;;;;;;;;4936750;29;20043;-58
2021/12/09 09:36:19;;;;;;;10.00;4.00;;;;;;;;;;4936416;29;20044;-58
2021/12/09 09:38:45;;;;;;;19.77;5.15;;;;;;;;;;4932751;29;20050;-58
2021/12/09 09:41:15;;;;;;;6.55;3.97;;;;;;;;;;4935986;29;20040;-58
2021/12/09 09:46:10;;;;;;;9.15;4.57;;;;;;;;;;4936587;29;20054;-59
2021/12/09 09:48:36;;;;;;;8.98;4.55;;;;;;;;;;4935991;29;20044;-58
2021/12/09 09:51:03;;;;;;;7.57;4.10;;;;;;;;;;4936532;29;20047;-59
2021/12/09 09:53:29;;;;;;;9.25;4.50;;;;;;;;;;4935910;29;20058;-58
2021/12/09 09:55:55;;;;;;;10.45;4.13;;;;;;;;;;4935142;29;20447;-59
2021/12/09 09:58:21;;;;;;;13.93;5.05;;;;;;;;;;4935291;29;20047;-59
2021/12/09 10:00:47;;;;;;;10.95;4.40;;;;;;;;;;4936241;29;20139;-59
2021/12/09 10:03:16;;;;;;;10.32;4.35;;;;;;;;;;4934783;29;20486;-58
2021/12/09 10:05:44;;;;;;;11.15;4.65;;;;;;;;;;4936134;29;20063;-58
2021/12/09 10:08:12;;;;;;;15.90;5.28;;;;;;;;;;4936041;29;20472;-57
2021/12/09 10:10:39;;;;;;;12.30;3.83;;;;;;;;;;4934310;29;20525;-59
2021/12/09 10:13:06;;;;;;;9.10;4.07;;;;;;;;;;4934551;29;20040;-58
2021/12/09 10:15:43;;;;;;;14.10;4.90;;;;;;;;;;4934749;29;20494;-58
2021/12/09 10:18:09;;;;;;;10.10;4.22;;;;;;;;;;4935807;29;20043;-59
2021/12/09 10:21:02;;;;;;;12.70;5.07;;;;;;;;;;4935638;29;20387;-59
2021/12/09 10:23:50;;;;;;;10.43;3.63;;;;;;;;;;4932352;29;20051;-58
2021/12/09 10:26:27;;;;;;;14.88;4.63;;;;;;;;;;4935829;29;20079;-58
2021/12/09 10:28:56;;;;;;;10.35;4.20;;;;;;;;;;4934423;29;20383;-58
2021/12/09 10:31:28;;;;;;;11.70;4.18;;;;;;;;;;4935533;29;20431;-60
2021/12/09 10:34:07;;;;;;;14.23;4.43;;;;;;;;;;4935694;29;20478;-59
2021/12/09 10:36:39;;;;;;;10.68;4.55;;;;;;;;;;4934428;29;20048;-58
2021/12/09 10:39:16;;;;;;;8.15;3.67;;;;;;;;;;4935652;29;20492;-58
2021/12/09 10:41:42;;;;;;;13.63;4.68;;;;;;;;;;4935051;29;20048;-59
2021/12/09 10:44:08;;;;;;;10.38;4.47;;;;;;;;;;4935147;29;20051;-59
2021/12/09 10:46:49;;;;;;;7.40;4.30;;;;;;;;;;4935590;29;20375;-59
2021/12/09 10:49:17;;;;;;;11.13;4.57;;;;;;;;;;4935249;29;20413;-58
2021/12/09 10:51:55;;;;;;;7.35;4.03;;;;;;;;;;4933927;29;20528;-58
2021/12/09 10:54:34;;;;;;;10.93;4.82;;;;;;;;;;4935038;29;20111;-59
2021/12/09 10:57:21;;;;;;;11.60;4.05;;;3.60;99.90;;;;;;4935195;29;20127;-59
2021/12/09 10:59:47;;;;;;;10.02;4.30;;;;;;;;;;4933511;29;20056;-59
2021/12/09 11:02:13;;;;;;;14.90;4.63;;;;;;;;;;4933704;29;20096;-59
2021/12/09 11:04:39;;;;;;;8.38;4.22;;;;;;;;;;4934792;29;20051;-57
2021/12/09 11:07:27;;;;;;;13.05;5.70;;;;;;;;;;4934832;29;20044;-59
2021/12/09 11:10:13;;;;;;;9.90;4.95;;;;;;;;;;4933759;29;20044;-58
2021/12/09 11:12:39;;;;;;;13.30;5.50;;;;;;;;;;4934727;29;20509;-59
2021/12/09 11:15:05;;;;;;;13.68;4.85;;;;;;;;;;4934736;29;20047;-58
2021/12/09 11:17:38;;;;;;;14.50;5.65;;;;;;;;;;4933365;29;20046;-58
2021/12/09 11:20:04;;;;;;;13.05;5.40;;;;;;;;;;4934882;29;20512;-59
2021/12/09 11:22:35;;;;;;;14.38;6.20;;;;;;;;;;4934499;29;20048;-59
2021/12/09 11:25:04;;;;;;;13.07;6.32;;;;;;;;;;4934145;29;20046;-59
2021/12/09 11:27:30;;;;;;;14.85;7.05;;;;;;;;;;4930774;29;20051;-59
2021/12/09 11:30:09;;;;;;;15.30;8.35;;;;;;;;;;4933658;29;20087;-59
2021/12/09 11:35:15;;;;;;;16.23;7.05;;;;;;;;;;4934219;29;20043;-58
2021/12/09 11:37:51;;;;;;;13.77;7.60;;;;;;;;;;4934205;29;20039;-58
2021/12/09 11:40:48;;;;;;;15.65;7.25;;;;;;;;;;4934440;29;20055;-59
2021/12/09 11:43:19;;;;;;;12.80;6.93;;;;;;;;;;4934314;29;20047;-59
2021/12/09 11:45:46;;;;;;;15.65;6.93;;;;;;;;;;4934249;29;20078;-58
2021/12/09 11:48:13;;;;;;;15.98;7.40;;;;;;;;;;4934099;29;20048;-59
2021/12/09 11:50:44;;;;;;;14.50;7.30;;;;;;;;;;4934115;29;20139;-59
2021/12/09 11:53:11;;;;;;;16.73;7.47;;;;;;;;;;4934002;29;20079;-58
2021/12/09 11:55:42;;;;;;;13.75;7.18;;;;;;;;;;4934371;29;20050;-59
2021/12/09 11:58:21;;;;;;;17.33;7.28;;;;;;;;;;4933944;29;20375;-59
2021/12/09 12:12:23;;;;;;;16.55;7.43;;;3.50;99.90;;;;;;4933595;29;20052;-59
2021/12/09 12:14:52;;;;;;;19.73;7.93;;;;;;;;;;4933901;29;20048;-58
2021/12/09 12:20:18;;;;;;;14.23;7.55;;;;;;;;;;4933417;29;20410;-59
2021/12/09 12:23:01;;;;;;;17.00;7.47;;;;;;;;;;4933622;29;20088;-58
2021/12/09 12:32:05;;;;;;;17.17;7.88;;;;;;;;;;4933546;29;20082;-59
2021/12/09 12:39:33;;;;;;;16.20;8.95;;;;;;;;;;4933577;29;20054;-59
2021/12/09 12:42:05;;;;;;;18.88;8.88;;;;;;;;;;4933441;29;20051;-59
2021/12/09 12:44:31;;;;;;;21.42;9.43;;;;;;;;;;4933531;29;20529;-59
2021/12/09 12:47:15;;;;;;;16.42;9.50;;;;;;;;;;4933442;29;20094;-59
2021/12/09 12:49:47;;;;;;;14.88;8.45;;;;;;;;;;4933590;29;20449;-59
2021/12/09 12:52:24;;;;;;;20.83;9.20;;;;;;;;;;4933411;29;20047;-59
2021/12/09 12:54:58;;;;;;;18.38;9.10;;;;;;;;;;4931977;29;20164;-58
2021/12/09 12:57:34;;;;;;;23.17;10.32;;;;;;;;;;4931853;29;20050;-58
2021/12/09 13:00:04;;;;;;;22.17;9.40;;;;;;;;;;4933515;29;20078;-59
2021/12/09 13:03:02;;;;;;;18.42;9.82;;;;;;;;;;4933298;29;20449;-59
2021/12/09 13:16:06;;;;;;;16.55;8.40;;;;;;;;;;4929311;29;20482;-59
2021/12/09 13:18:44;;;;;;;24.55;9.20;;;;;;;;;;4932782;29;20070;-59
2021/12/09 13:21:34;;;;;;;20.40;9.57;;;4.10;99.90;;;;;;4933100;29;20543;-58
2021/12/09 13:24:20;;;;;;;14.55;8.60;;;;;;;;;;4933171;29;20043;-59
2021/12/09 13:27:11;;;;;;;17.30;9.10;;;4.20;99.90;;;;;;4931952;29;20040;-58
2021/12/09 13:38:37;;;;;;;18.02;8.32;;;;;;;;;;4936621;29;20469;-59
2021/12/09 13:46:30;;;;;;;15.50;8.02;;;;;;;;;;4936335;29;20498;-59
2021/12/09 13:49:00;;;;;;;14.10;8.10;;;;;;;;;;4936370;29;20455;-59
2021/12/09 13:56:44;;;;;;;;;;;;;;;;;;4936762;29;20075;-58
2021/12/09 13:59:14;;;;;;;17.90;7.85;;;;;;;;;;4936245;29;20024;-59
2021/12/09 14:01:40;;;;;;;16.52;8.15;;;;;;;;;;4936113;29;20044;-59
2021/12/09 14:04:08;;;;;;;17.80;8.18;;;;;;;;;;4936104;29;20766;-59
2021/12/09 14:06:34;;;;;;;17.40;7.43;;;;;;;;;;4934488;29;20087;-59
2021/12/09 14:09:00;;;;;;;15.65;7.53;;;;;;;;;;4936043;29;20044;-59
2021/12/09 14:11:34;;;;;;;17.45;8.35;;;;;;;;;;4935672;29;20047;-59
2021/12/09 14:14:05;;;;;;;16.33;7.25;;;;;;;;;;4935976;29;20490;-59
2021/12/09 14:17:14;;;;;;;16.23;8.35;;;;;;;;;;4935685;29;20044;-59
2021/12/09 14:22:00;;;;;;;13.25;7.15;;;;;;;;;;4935860;29;20410;-59
2021/12/09 14:24:28;;;;;;;15.98;8.25;;;;;;;;;;4935550;29;20142;-59
2021/12/09 14:26:54;;;;;;;16.27;8.13;;;;;;;;;;4935549;29;20406;-59
2021/12/09 14:29:20;;;;;;;13.73;8.20;;;;;;;;;;4935396;29;20035;-59
2021/12/09 14:31:48;;;;;;;13.93;7.95;;;;;;;;;;4935789;29;20043;-59
2021/12/09 14:34:15;;;;;;;15.57;7.93;;;;;;;;;;4935470;29;20038;-59
2021/12/09 14:36:42;;;;;;;12.85;7.30;;;;;;;;;;4935364;29;20047;-59
2021/12/09 14:39:09;;;;;;;15.52;8.02;;;;;;;;;;4935398;29;20404;-59
2021/12/09 14:41:36;;;;;;;17.05;8.52;;;;;;;;;;4935072;29;20099;-59
2021/12/09 14:44:04;;;;;;;16.38;8.43;;;;;;;;;;4935275;29;20118;-58
2021/12/09 14:46:36;;;;;;;17.58;7.97;;;;;;;;;;4935131;29;20124;-59
2021/12/09 14:49:13;;;;;;;19.90;9.15;;;;;;;;;;4935278;29;20474;-58
2021/12/09 14:51:42;;;;;;;15.93;8.70;;;;;;;;;;4935084;29;20044;-59
2021/12/09 14:54:09;;;;;;;16.02;7.95;;;;;;;;;;4934959;29;20063;-59
2021/12/09 14:56:36;;;;;;;19.67;8.90;;;;;;;;;;4934899;29;20084;-58
2021/12/09 14:59:18;;;;;;;18.35;8.40;;;;;;;;;;4935207;29;20814;-59
2021/12/09 15:01:44;;;;;;;17.63;8.00;;;;;;;;;;4931832;29;20058;-59
2021/12/09 15:04:20;;;;;;;17.83;8.32;;;;;;;;;;4930901;29;20040;-58
2021/12/09 15:06:55;;;;;;;18.00;9.23;;;;;;;;;;4934997;29;20497;-58
2021/12/09 15:09:21;;;;;;;15.05;8.30;;;;;;;;;;4935186;29;20051;-58
2021/12/09 15:11:52;;;;;;;17.63;8.98;;;;;;;;;;4934867;29;20048;-57
2021/12/09 15:14:20;;;;;;;16.77;8.68;;;;;;;;;;4934998;29;20454;-57
2021/12/09 15:16:46;;;;;;;18.40;9.18;;;;;;;;;;4933341;29;20119;-57
2021/12/09 15:19:16;;;;;;;15.15;8.82;;;;;;;;;;4934631;29;20114;-57
2021/12/09 15:21:42;;;;;;;17.60;9.15;;;;;;;;;;4934410;29;20046;-58
2021/12/09 15:24:11;;;;;;;21.77;10.10;;;;;;;;;;4934793;29;20513;-58
2021/12/09 15:26:39;;;;;;;22.10;10.25;;;;;;;;;;4933242;29;20043;-57
2021/12/09 15:29:22;;;;;;;15.05;9.27;;;;;;;;;;4934394;29;20043;-58
2021/12/09 15:31:54;;;;;;;19.20;10.00;;;;;;;;;;4934057;29;20044;-58
2021/12/09 15:34:26;;;;;;;17.95;9.88;;;;;;;;;;4934710;29;20075;-58
2021/12/09 15:37:00;;;;;;;19.97;11.77;;;;;;;;;;4934430;29;20054;-57
2021/12/09 15:39:30;;;;;;;19.02;11.43;;;;;;;;;;4934365;29;20126;-57
2021/12/09 15:42:01;;;;;;;18.95;10.38;;;;;;;;;;4934055;29;20039;-57
2021/12/09 15:44:27;;;;;;;20.52;9.70;;;;;;;;;;4934171;29;20518;-57
2021/12/09 15:47:01;;;;;;;20.13;10.90;;;;;;;;;;4934098;29;20043;-57
2021/12/09 15:49:29;;;;;;;15.30;10.30;;;;;;;;;;4933055;29;20059;-59
2021/12/09 15:51:57;;;;;;;18.90;10.23;;;;;;;;;;4933912;29;20044;-58
2021/12/09 15:54:25;;;;;;;16.58;10.75;;;;;;;;;;4933692;29;20143;-58
2021/12/09 15:56:53;;;;;;;14.90;9.32;;;;;;;;;;4933829;29;20414;-58
2021/12/09 15:59:21;;;;;;;18.83;10.77;;;;;;;;;;4934110;29;20126;-58
2021/12/09 16:01:49;;;;;;;12.38;8.75;;;;;;;;;;4933826;29;20052;-58
2021/12/09 16:04:15;;;;;;;23.30;12.23;;;;;;;;;;4932643;29;20047;-57
2021/12/09 16:06:43;;;;;;;20.60;12.18;;;;;;;;;;4933673;29;20046;-58
2021/12/09 16:09:13;;;;;;;23.00;11.40;;;;;;;;;;4932563;29;20059;-58
2021/12/09 16:11:39;;;;;;;24.05;12.40;;;;;;;;;;4933670;29;20043;-58
2021/12/09 16:14:06;;;;;;;20.83;10.52;;;;;;;;;;4932483;29;20047;-58
2021/12/09 16:16:34;;;;;;;22.10;11.35;;;;;;;;;;4932772;29;20112;-58
2021/12/09 16:19:02;;;;;;;21.20;11.68;;;;;;;;;;4933837;29;20059;-58
2021/12/09 16:21:54;;;;;;;23.20;10.82;;;;;;;;;;4933729;29;20079;-58
2021/12/09 16:24:20;;;;;;;19.88;11.20;;;;;;;;;;4933854;29;20039;-58
2021/12/09 16:26:48;;;;;;;25.05;13.35;;;;;;;;;;4933655;29;20126;-58
2021/12/09 16:29:15;;;;;;;25.50;12.88;;;;;;;;;;4933537;29;20118;-58
2021/12/09 16:31:41;;;;;;;21.15;11.75;;;;;;;;;;4933642;29;20044;-57
2021/12/09 16:34:07;;;;;;;19.60;11.57;;;;;;;;;;4933260;29;20039;-58
2021/12/09 16:36:34;;;;;;;15.48;10.63;;;;;;;;;;4933498;29;20042;-58
2021/12/09 16:38:59;;;;;;;17.70;11.43;;;;;;;;;;4933229;29;20051;-58
2021/12/09 16:41:25;;;;;;;21.15;11.10;;;;;;;;;;4933786;29;20095;-58
2021/12/09 16:43:52;;;;;;;17.80;10.73;;;;;;;;;;4933431;29;20516;-57
2021/12/09 16:46:18;;;;;;;20.58;11.20;;;;;;;;;;4933860;29;20044;-59
2021/12/09 16:48:46;;;;;;;18.17;11.18;;;;;;;;;;4916429;29;20051;-58
2021/12/09 16:51:13;;;;;;;24.58;12.60;;;;;;;;;;4926681;29;20044;-57
2021/12/09 16:53:48;;;;;;;20.17;11.63;;;;;;;;;;4932686;29;20064;-58
2021/12/09 16:56:35;;;;;;;21.20;11.85;;;;;;;;;;4931892;29;20094;-58
2021/12/09 16:59:05;;;;;;;21.33;12.18;;;;;;;;;;4933592;29;20047;-58
2021/12/09 17:01:33;;;;;;;27.98;13.70;;;;;;;;;;4931949;29;20044;-58
2021/12/09 17:03:59;;;;;;;22.27;13.18;;;;;;;;;;4933266;29;20079;-57
2021/12/09 17:06:26;;;;;;;18.75;12.63;;;;;;;;;;4933754;29;20401;-58
2021/12/09 17:08:53;;;;;;;18.98;12.43;;;;;;;;;;4936992;29;20039;-58
2021/12/09 17:11:20;;;;;;;17.77;11.73;;;;;;;;;;4936921;29;20048;-58
2021/12/09 17:13:46;;;;;;;21.35;12.80;;;;;;;;;;4936984;29;20479;-58
2021/12/09 17:16:12;;;;;;;20.00;12.63;;;;;;;;;;4936595;29;20130;-58
2021/12/09 17:18:38;;;;;;;22.58;11.95;;;;;;;;;;4937123;29;20102;-57